Cool, CA (95614)

1:45 PM PST on February 09, 2016 (GMT -0800)
Auburn Lake Trails | | Change Station
CLOSE
Current Station
Personal Weather Station
Location: Cool, CA
Elevation: 1913 ft
Nearby Weather Stations

Elev 1913 ft 38.91 °N, 120.95 °W | Updated 4 minutes ago

Partly Cloudy
Partly Cloudy
77.4 °F
Feels Like 78 °F
N
1.6
Wind Variable Wind from South
Gusts 2.2 mph

Today
High -- | Low -- °F
--% Chance of Precip.
Yesterday
High -- | Low -- °F
Precip. -- in
Pressure 30.22 in
Visibility 10.0 miles
Clouds Clear
Heat Index 78 °F
Dew Point 42 °F
Humidity 28%
Rainfall 0.00 in
Snow Depth Not available.
7:02 AM 5:34 PM
New Moon, 2% visible
METAR KAUN 092135Z AUTO 24003KT 10SM CLR 22/06 A3022 RMK AO1
Pressure 30.22 in
Visibility 10.0 miles
Clouds Clear
Heat Index 78 °F
Dew Point 42 °F
Humidity 28%
Rainfall 0.00 in
Snow Depth Not available.
7:02 AM 5:34 PM
New Moon, 2% visible
METAR KAUN 092135Z AUTO 24003KT 10SM CLR 22/06 A3022 RMK AO1

10-Day Weather Forecast

Almanac

Astronomy

Feb. 09, 2016 Rise Set
Actual Time
Civil Twilight
Nautical Twilight
Astronomical Twilight
Moon
Length of Visible Light
Length of Day
Tomorrow will be .
, % of the Moon is Illuminated

Today's Extremes

State Highs State Lows

Community

WunderPhotos

Upload Photos

1,891,710 photos uploaded!

WunderBlog® & News

Nearby

Air Quality

  Air Quality AQ Index Pollutant
Not available.

Snow Depth

Station Depth Elevation

Earthquake Activity

City Distance Mag. Time & Date
Minimum magnitude displayed is 2.5.

Coastal Water Temperatures

Place Temperature

Stations

Nearby Weather Stations

Station Location Temp. Windchill Dew Point Humidity Wind Precip. Elev Updated Type
                   

Watches & Warnings

There are currently no watches in effect.